createdAt,value
2018-01-02T00:01:53.433Z,40.47
2018-01-02T00:04:20.958Z,40.87
2018-01-02T00:06:48.516Z,41.90
2018-01-02T00:09:16.044Z,42.20
2018-01-02T00:11:43.645Z,43.23
2018-01-02T00:14:11.171Z,41.93
2018-01-02T00:16:38.690Z,40.10
2018-01-02T00:19:06.206Z,39.70
2018-01-02T00:21:33.727Z,37.33
2018-01-02T00:24:01.278Z,41.23
2018-01-02T00:26:28.798Z,38.07
2018-01-02T00:28:56.326Z,36.80
2018-01-02T00:31:23.849Z,36.73
2018-01-02T00:33:51.384Z,36.63
2018-01-02T00:36:18.934Z,36.70
2018-01-02T00:38:46.455Z,38.63
2018-01-02T00:41:14.067Z,39.07
2018-01-02T00:43:41.591Z,38.53
2018-01-02T00:46:09.114Z,35.40
2018-01-02T00:48:36.634Z,36.53
2018-01-02T00:51:04.155Z,34.90
2018-01-02T00:53:31.710Z,38.13
2018-01-02T00:55:59.241Z,35.37
2018-01-02T00:58:26.759Z,36.00
2018-01-02T01:00:54.290Z,38.07
2018-01-02T01:03:21.810Z,38.60
2018-01-02T01:05:49.334Z,37.73
2018-01-02T01:08:16.859Z,36.40
2018-01-02T01:10:44.407Z,36.67
2018-01-02T01:13:11.930Z,34.83
2018-01-02T01:15:39.528Z,35.23
2018-01-02T01:18:07.052Z,37.40
2018-01-02T01:20:34.576Z,34.80
2018-01-02T01:23:02.180Z,34.23
2018-01-02T01:25:29.773Z,36.37
2018-01-02T01:27:57.347Z,36.67
2018-01-02T01:30:24.862Z,39.27
2018-01-02T01:32:52.389Z,37.83
2018-01-02T01:35:19.911Z,35.10
2018-01-02T01:37:47.462Z,37.90
2018-01-02T01:40:15.062Z,34.10
2018-01-02T01:42:42.662Z,36.67
2018-01-02T01:45:10.187Z,35.20
2018-01-02T01:47:37.706Z,38.17
2018-01-02T01:50:05.224Z,38.63
2018-01-02T01:52:32.816Z,34.40
2018-01-02T01:55:00.375Z,37.70
2018-01-02T01:57:27.970Z,35.77
2018-01-02T01:59:55.539Z,36.40
2018-01-02T02:02:23.144Z,35.53
2018-01-02T02:04:50.664Z,36.33
2018-01-02T02:07:18.185Z,34.97
2018-01-02T02:09:45.706Z,40.83
2018-01-02T02:12:13.267Z,37.03
2018-01-02T02:14:40.790Z,33.17
2018-01-02T02:17:08.317Z,36.27
2018-01-02T02:19:35.847Z,32.97
2018-01-02T02:22:03.371Z,37.17
2018-01-02T02:24:30.898Z,33.57
2018-01-02T02:26:58.418Z,34.80
2018-01-02T02:29:25.974Z,33.50
2018-01-02T02:31:53.494Z,35.57
2018-01-02T02:34:21.016Z,33.20
2018-01-02T02:36:48.555Z,31.43
2018-01-02T02:39:16.085Z,36.03
2018-01-02T02:41:43.689Z,36.70
2018-01-02T02:44:11.210Z,33.90
2018-01-02T02:46:38.731Z,36.83
2018-01-02T02:49:06.327Z,38.40
2018-01-02T02:51:33.855Z,36.33
2018-01-02T02:54:01.376Z,35.93
2018-01-02T02:56:28.960Z,34.23
2018-01-02T02:58:56.492Z,38.67
2018-01-02T03:01:24.019Z,39.27
2018-01-02T03:03:51.548Z,32.67
2018-01-02T03:06:19.072Z,35.10
2018-01-02T03:08:46.594Z,34.87
2018-01-02T03:11:14.119Z,39.00
2018-01-02T03:13:41.710Z,35.27
2018-01-02T03:16:09.341Z,31.53
2018-01-02T03:18:36.930Z,32.60
2018-01-02T03:21:04.455Z,32.90
2018-01-02T03:23:31.977Z,32.07
2018-01-02T03:25:59.499Z,34.70
2018-01-02T03:28:27.027Z,34.43
2018-01-02T03:30:54.551Z,33.53
2018-01-02T03:33:22.078Z,36.43
2018-01-02T03:35:49.665Z,33.33
2018-01-02T03:38:17.303Z,34.87
2018-01-02T03:40:44.830Z,35.97
2018-01-02T03:43:12.354Z,36.60
2018-01-02T03:45:39.945Z,34.20
2018-01-02T03:48:07.472Z,35.73
2018-01-02T03:50:34.992Z,33.50
2018-01-02T03:53:02.519Z,36.40
2018-01-02T03:55:30.041Z,37.07
2018-01-02T03:57:57.569Z,36.63
2018-01-02T04:00:25.099Z,36.37
2018-01-02T04:02:52.627Z,32.80
2018-01-02T04:05:20.152Z,34.63
2018-01-02T04:07:47.687Z,31.20
2018-01-02T04:10:15.231Z,32.97
2018-01-02T04:12:42.788Z,37.67
2018-01-02T04:15:10.404Z,34.50
2018-01-02T04:17:37.927Z,34.00
2018-01-02T04:20:05.450Z,33.73
2018-01-02T04:22:32.974Z,31.63
2018-01-02T04:25:00.525Z,35.17
2018-01-02T04:27:28.054Z,34.57
2018-01-02T04:29:55.585Z,32.07
2018-01-02T04:32:23.179Z,34.43
2018-01-02T04:34:50.710Z,32.07
2018-01-02T04:37:18.311Z,34.60
2018-01-02T04:39:45.909Z,36.03
2018-01-02T04:42:13.463Z,36.77
2018-01-02T04:44:41.006Z,32.27
2018-01-02T04:47:08.527Z,32.43
2018-01-02T04:49:36.055Z,33.57
2018-01-02T04:52:03.574Z,33.03
2018-01-02T04:54:32.059Z,32.20
2018-01-02T04:56:59.663Z,33.10
2018-01-02T04:59:27.235Z,36.90
2018-01-02T05:01:54.762Z,33.23
2018-01-02T05:04:22.292Z,34.60
2018-01-02T05:06:49.888Z,32.30
2018-01-02T05:09:17.419Z,35.33
2018-01-02T05:11:44.947Z,34.13
2018-01-02T05:14:12.471Z,35.10
2018-01-02T05:16:40.005Z,30.27
2018-01-02T05:19:07.530Z,31.17
2018-01-02T05:21:35.079Z,35.83
2018-01-02T05:24:02.607Z,32.23
2018-01-02T05:26:30.135Z,35.50
2018-01-02T05:28:57.672Z,31.57
2018-01-02T05:31:25.273Z,32.40
2018-01-02T05:33:52.797Z,30.70
2018-01-02T05:36:20.325Z,29.90
2018-01-02T05:38:47.884Z,31.67
2018-01-02T05:41:15.408Z,32.67
2018-01-02T05:43:42.927Z,34.97
2018-01-02T05:46:10.463Z,33.57
2018-01-02T05:48:37.987Z,32.97
2018-01-02T05:51:05.534Z,31.53
2018-01-02T05:53:33.060Z,32.73
2018-01-02T05:56:00.615Z,32.77
2018-01-02T05:58:28.153Z,38.93
2018-01-02T06:00:55.682Z,50.07
2018-01-02T06:03:23.211Z,31.90
2018-01-02T06:05:50.813Z,36.77
2018-01-02T06:08:18.335Z,38.60
2018-01-02T06:10:45.865Z,35.53
2018-01-02T06:13:13.435Z,40.00
2018-01-02T06:15:40.962Z,35.77
2018-01-02T06:18:08.486Z,36.77
2018-01-02T06:20:36.011Z,34.77
2018-01-02T06:23:03.536Z,36.53
2018-01-02T06:25:31.063Z,43.50
2018-01-02T06:27:58.591Z,36.77
2018-01-02T06:30:26.186Z,38.53
2018-01-02T06:32:53.713Z,44.13
2018-01-02T06:35:21.276Z,40.00
2018-01-02T06:37:48.815Z,39.10
2018-01-02T06:40:16.417Z,40.67
2018-01-02T06:42:44.023Z,39.53
2018-01-02T06:45:11.555Z,50.57
2018-01-02T06:47:39.079Z,33.37
2018-01-02T06:50:06.612Z,35.03
2018-01-02T06:52:34.178Z,36.53
2018-01-02T06:55:01.705Z,35.90
2018-01-02T06:57:29.226Z,39.73
2018-01-02T06:59:56.774Z,37.23
2018-01-02T07:02:24.312Z,35.13
2018-01-02T07:04:51.859Z,38.13
2018-01-02T07:07:19.399Z,35.73
2018-01-02T07:09:46.959Z,40.73
2018-01-02T07:12:14.609Z,37.23
2018-01-02T07:14:42.163Z,42.43
2018-01-02T07:17:09.766Z,40.50
2018-01-02T07:19:37.392Z,40.17
2018-01-02T07:22:04.957Z,35.57
2018-01-02T07:24:32.496Z,37.47
2018-01-02T07:27:00.121Z,37.37
2018-01-02T07:29:27.654Z,38.80
2018-01-02T07:31:55.191Z,36.30
2018-01-02T07:34:22.733Z,37.17
2018-01-02T07:36:50.268Z,39.73
2018-01-02T07:39:17.801Z,38.60
2018-01-02T07:41:45.421Z,38.87
2018-01-02T07:44:13.037Z,39.23
2018-01-02T07:46:40.562Z,37.23
2018-01-02T07:49:08.091Z,43.40
2018-01-02T07:51:35.707Z,37.43
2018-01-02T07:54:03.249Z,32.50
2018-01-02T07:56:30.782Z,36.30
2018-01-02T07:58:58.314Z,39.43
2018-01-02T08:01:25.849Z,37.30
2018-01-02T08:03:53.388Z,36.63
2018-01-02T08:06:20.954Z,38.30
2018-01-02T08:08:48.486Z,40.10
2018-01-02T08:11:16.019Z,39.17
2018-01-02T08:13:43.621Z,44.43
2018-01-02T08:16:11.213Z,37.10
2018-01-02T08:18:38.735Z,40.27
2018-01-02T08:21:06.345Z,41.40
2018-01-02T08:23:33.919Z,37.27
2018-01-02T08:26:01.513Z,39.53
2018-01-02T08:28:29.051Z,46.17
2018-01-02T08:30:56.651Z,44.20
2018-01-02T08:33:24.179Z,44.53
2018-01-02T08:35:51.732Z,38.17
2018-01-02T08:38:19.256Z,38.17
2018-01-02T08:40:46.786Z,35.83
2018-01-02T08:43:14.311Z,35.17
2018-01-02T08:45:41.840Z,30.83
2018-01-02T08:48:09.370Z,34.43
2018-01-02T08:50:36.970Z,33.20
2018-01-02T08:53:04.541Z,40.97
2018-01-02T08:55:32.078Z,33.60
2018-01-02T08:57:59.673Z,36.10
2018-01-02T09:00:27.204Z,37.97
2018-01-02T09:02:54.749Z,31.93
2018-01-02T09:05:22.283Z,34.17
2018-01-02T09:07:49.881Z,36.90
2018-01-02T09:10:17.476Z,35.90
2018-01-02T09:12:47.989Z,35.87
2018-01-02T09:15:15.506Z,34.93
2018-01-02T09:17:43.030Z,35.50
2018-01-02T09:20:10.598Z,33.33
2018-01-02T09:22:38.193Z,35.30
2018-01-02T09:25:05.723Z,36.43
2018-01-02T09:27:33.284Z,32.83
2018-01-02T09:30:00.813Z,30.60
2018-01-02T09:32:28.449Z,34.23
2018-01-02T09:34:55.970Z,32.87
2018-01-02T09:37:23.510Z,33.77
2018-01-02T09:39:51.117Z,32.07
2018-01-02T09:42:18.667Z,32.80
2018-01-02T09:44:46.191Z,29.67
2018-01-02T09:47:13.788Z,32.23
2018-01-02T09:49:41.340Z,34.43
2018-01-02T09:52:08.887Z,32.23
2018-01-02T09:54:36.481Z,30.17
2018-01-02T09:57:04.013Z,31.43
2018-01-02T09:59:31.539Z,33.73
2018-01-02T10:01:59.063Z,29.77
2018-01-02T10:04:26.664Z,28.10
2018-01-02T10:06:54.218Z,29.37
2018-01-02T10:09:21.821Z,31.47
2018-01-02T10:11:49.356Z,31.63
2018-01-02T10:14:16.891Z,32.00
2018-01-02T10:16:44.492Z,30.00
2018-01-02T10:19:12.040Z,31.33
2018-01-02T10:21:39.667Z,27.07
2018-01-02T10:24:07.198Z,28.97
2018-01-02T10:26:34.727Z,29.40
2018-01-02T10:29:02.264Z,30.03
2018-01-02T10:31:29.856Z,29.43
2018-01-02T10:33:57.461Z,29.67
2018-01-02T10:36:24.995Z,27.87
2018-01-02T10:38:52.519Z,26.43
2018-01-02T10:41:20.132Z,29.70
2018-01-02T10:43:47.667Z,31.63
2018-01-02T10:46:15.243Z,26.63
2018-01-02T10:48:42.771Z,29.20
2018-01-02T10:51:10.361Z,30.10
2018-01-02T10:53:37.929Z,25.83
2018-01-02T10:56:05.464Z,28.40
2018-01-02T10:58:32.983Z,27.23
2018-01-02T11:01:01.419Z,32.53
2018-01-02T11:03:29.058Z,25.10
2018-01-02T11:05:56.587Z,24.37
2018-01-02T11:08:24.123Z,30.93
2018-01-02T11:10:57.043Z,30.50
2018-01-02T11:16:20.239Z,27.03
2018-01-02T11:18:47.764Z,27.17
2018-01-02T11:21:15.286Z,28.80
2018-01-02T11:23:42.818Z,30.87
2018-01-02T11:26:10.385Z,25.93
2018-01-02T11:28:37.981Z,26.40
2018-01-02T11:31:05.515Z,28.60
2018-01-02T11:33:33.045Z,28.47
2018-01-02T11:36:00.642Z,26.17
2018-01-02T11:38:28.180Z,29.20
2018-01-02T11:40:55.720Z,28.23
2018-01-02T11:43:23.282Z,28.57
2018-01-02T11:45:50.883Z,28.90
2018-01-02T11:48:18.411Z,26.87
2018-01-02T11:50:45.954Z,26.73
2018-01-02T11:53:13.482Z,29.27
2018-01-02T11:55:41.081Z,29.13
2018-01-02T11:58:08.614Z,28.30
2018-01-02T12:00:36.186Z,29.57
2018-01-02T12:03:03.712Z,31.07
2018-01-02T12:05:31.250Z,28.83
2018-01-02T12:07:58.773Z,29.17
2018-01-02T12:10:26.299Z,26.90
2018-01-02T12:12:53.854Z,26.90
2018-01-02T12:15:21.380Z,25.20
2018-01-02T12:17:48.985Z,29.17
2018-01-02T12:20:16.602Z,27.93
2018-01-02T12:22:44.135Z,32.70
2018-01-02T12:25:11.663Z,27.80
2018-01-02T12:27:39.261Z,31.00
2018-01-02T12:30:06.789Z,30.63
2018-01-02T12:32:34.319Z,27.80
2018-01-02T12:35:01.859Z,26.93
2018-01-02T12:37:29.388Z,26.83
2018-01-02T12:39:56.988Z,28.57
2018-01-02T12:42:24.578Z,28.03
2018-01-02T12:44:52.108Z,27.17
2018-01-02T12:47:19.706Z,30.30
2018-01-02T12:49:47.230Z,27.30
2018-01-02T12:52:14.755Z,28.43
2018-01-02T12:54:42.288Z,29.10
2018-01-02T12:57:09.863Z,28.43
2018-01-02T12:59:37.407Z,31.97
2018-01-02T13:02:04.934Z,32.47
2018-01-02T13:04:32.462Z,27.03
2018-01-02T13:07:00.065Z,25.60
2018-01-02T13:09:27.657Z,29.37
2018-01-02T13:11:55.197Z,28.33
2018-01-02T13:14:22.758Z,29.43
2018-01-02T13:16:50.353Z,28.63
2018-01-02T13:19:17.896Z,28.33
2018-01-02T13:21:45.510Z,31.07
2018-01-02T13:24:13.158Z,29.73
2018-01-02T13:26:40.708Z,29.13
2018-01-02T13:29:08.251Z,31.13
2018-01-02T13:31:35.849Z,29.53
2018-01-02T13:34:03.470Z,27.50
2018-01-02T13:36:31.000Z,27.90
2018-01-02T13:38:58.607Z,28.70
2018-01-02T13:41:26.140Z,30.20
2018-01-02T13:43:53.670Z,30.47
2018-01-02T13:46:21.277Z,26.97
2018-01-02T13:48:48.891Z,28.03
2018-01-02T13:51:16.420Z,28.37
2018-01-02T13:53:43.975Z,26.17
2018-01-02T13:56:11.504Z,26.83
2018-01-02T13:58:39.134Z,31.03
2018-01-02T14:01:06.659Z,27.10
2018-01-02T14:03:34.257Z,30.00
2018-01-02T14:06:01.818Z,29.30
2018-01-02T14:08:29.355Z,24.67
2018-01-02T14:10:56.949Z,29.50
2018-01-02T14:13:24.497Z,27.83
2018-01-02T14:15:52.027Z,27.27
2018-01-02T14:18:19.584Z,24.60
2018-01-02T14:20:47.181Z,29.77
2018-01-02T14:23:14.718Z,28.60
2018-01-02T14:25:42.343Z,27.60
2018-01-02T14:28:10.010Z,31.70
2018-01-02T14:30:37.542Z,27.77
2018-01-02T14:33:05.107Z,29.57
2018-01-02T14:35:32.651Z,26.43
2018-01-02T14:38:00.183Z,29.03
2018-01-02T14:40:27.763Z,28.23
2018-01-02T14:42:55.320Z,27.63
2018-01-02T14:45:22.935Z,26.47
2018-01-02T14:47:50.467Z,26.93
2018-01-02T14:50:17.999Z,30.30
2018-01-02T14:52:45.597Z,29.30
2018-01-02T14:55:13.122Z,28.57
2018-01-02T14:57:40.690Z,28.03
2018-01-02T15:00:08.216Z,30.87
2018-01-02T15:02:35.821Z,27.60
2018-01-02T15:05:03.353Z,28.67
2018-01-02T15:07:30.885Z,28.80
2018-01-02T15:09:58.419Z,25.10
2018-01-02T15:12:25.948Z,26.43
2018-01-02T15:14:53.542Z,26.90
2018-01-02T15:17:21.063Z,27.83
2018-01-02T15:19:48.624Z,27.03
2018-01-02T15:22:16.337Z,27.23
2018-01-02T15:24:43.948Z,27.87
2018-01-02T15:27:11.482Z,26.57
2018-01-02T15:29:39.018Z,29.10
2018-01-02T15:32:06.623Z,27.80
2018-01-02T15:34:34.167Z,27.57
2018-01-02T15:37:01.734Z,27.27
2018-01-02T15:39:29.264Z,26.80
2018-01-02T15:41:56.820Z,28.77
2018-01-02T15:44:24.421Z,26.17
2018-01-02T15:46:51.957Z,28.53
2018-01-02T15:49:19.508Z,26.20
2018-01-02T15:51:47.039Z,29.60
2018-01-02T15:54:14.674Z,25.53
2018-01-02T15:56:42.202Z,29.03
2018-01-02T15:59:09.729Z,28.27
2018-01-02T16:01:37.262Z,25.30
2018-01-02T16:04:04.805Z,25.77
2018-01-02T16:06:32.405Z,25.40
2018-01-02T16:08:59.930Z,24.33
2018-01-02T16:11:27.460Z,26.43
2018-01-02T16:13:55.002Z,25.43
2018-01-02T16:16:22.581Z,25.17
2018-01-02T16:18:50.189Z,23.77
2018-01-02T16:21:17.719Z,27.03
2018-01-02T16:23:45.321Z,25.00
2018-01-02T16:26:12.874Z,24.20
2018-01-02T16:28:40.403Z,28.07
2018-01-02T16:31:07.943Z,26.13
2018-01-02T16:33:35.524Z,26.87
2018-01-02T16:36:03.059Z,24.93
2018-01-02T16:38:30.625Z,24.20
2018-01-02T16:40:58.151Z,26.00
2018-01-02T16:43:25.687Z,26.77
2018-01-02T16:45:53.223Z,26.17
2018-01-02T16:48:20.770Z,25.20
2018-01-02T16:50:48.369Z,26.77
2018-01-02T16:53:15.907Z,25.40
2018-01-02T16:55:43.481Z,29.17
2018-01-02T16:58:11.024Z,28.13
2018-01-02T17:00:38.570Z,28.93
2018-01-02T17:03:06.116Z,28.13
2018-01-02T17:05:33.692Z,27.70
2018-01-02T17:08:01.227Z,30.73
2018-01-02T17:10:28.836Z,30.80
2018-01-02T17:12:56.474Z,30.70
2018-01-02T17:15:24.019Z,30.00
2018-01-02T17:17:51.579Z,29.93
2018-01-02T17:20:19.139Z,31.03
2018-01-02T17:22:46.754Z,30.33
2018-01-02T17:25:14.297Z,32.17
2018-01-02T17:27:41.839Z,34.43
2018-01-02T17:30:09.407Z,35.60
2018-01-02T17:32:36.974Z,31.73
2018-01-02T17:35:04.540Z,30.57
2018-01-02T17:37:32.095Z,32.37
2018-01-02T17:40:06.621Z,38.03
2018-01-02T17:42:34.406Z,35.67
2018-01-02T17:45:01.987Z,38.43
2018-01-02T17:47:29.655Z,38.33
2018-01-02T17:49:57.266Z,33.80
2018-01-02T17:52:24.801Z,43.27
2018-01-02T17:54:52.364Z,35.03
2018-01-02T17:57:19.981Z,30.77
2018-01-02T17:59:47.628Z,43.63
2018-01-02T18:02:15.163Z,40.77
2018-01-02T18:04:42.691Z,33.23
2018-01-02T18:07:10.321Z,30.10
2018-01-02T18:09:37.863Z,36.53
2018-01-02T18:12:05.396Z,42.97
2018-01-02T18:14:32.996Z,35.73
2018-01-02T18:17:00.556Z,38.37
2018-01-02T18:19:28.095Z,44.03
2018-01-02T18:21:55.640Z,53.80
2018-01-02T18:24:23.167Z,46.93
2018-01-02T18:26:50.703Z,50.43
2018-01-02T18:29:18.305Z,54.10
2018-01-02T18:31:45.865Z,50.77
2018-01-02T18:34:13.402Z,56.17
2018-01-02T18:36:40.963Z,42.60
2018-01-02T18:39:08.510Z,46.40
2018-01-02T18:41:36.071Z,48.03
2018-01-02T18:44:03.718Z,42.60
2018-01-02T18:46:31.259Z,45.97
2018-01-02T18:48:58.809Z,43.10
2018-01-02T18:51:26.371Z,48.17
2018-01-02T18:53:53.980Z,52.00
2018-01-02T18:56:21.679Z,44.37
2018-01-02T18:58:49.230Z,47.13
2018-01-02T19:01:16.773Z,56.10
2018-01-02T19:03:44.322Z,49.30
2018-01-02T19:06:11.860Z,45.53
2018-01-02T19:08:39.390Z,42.57
2018-01-02T19:11:06.918Z,54.67
2018-01-02T19:13:34.452Z,47.03
2018-01-02T19:16:01.983Z,41.80
2018-01-02T19:18:30.163Z,43.50
2018-01-02T19:20:57.690Z,43.13
2018-01-02T19:23:25.234Z,42.50
2018-01-02T19:25:52.799Z,47.33
2018-01-02T19:28:20.335Z,38.43
2018-01-02T19:30:47.871Z,47.67
2018-01-02T19:33:15.407Z,41.80
2018-01-02T19:35:42.971Z,41.77
2018-01-02T19:38:10.586Z,41.30
2018-01-02T19:40:38.131Z,47.07
2018-01-02T19:43:05.679Z,37.63
2018-01-02T19:45:33.295Z,38.77
2018-01-02T19:48:00.902Z,40.00
2018-01-02T19:50:28.466Z,34.63
2018-01-02T19:52:56.115Z,31.87
2018-01-02T19:55:23.650Z,35.57
2018-01-02T19:57:51.201Z,33.77
2018-01-02T20:00:18.743Z,31.87
2018-01-02T20:02:46.336Z,33.93
2018-01-02T20:05:13.911Z,33.43
2018-01-02T20:07:41.443Z,38.40
2018-01-02T20:10:08.979Z,35.43
2018-01-02T20:12:36.524Z,34.50
2018-01-02T20:15:04.109Z,34.13
2018-01-02T20:17:31.651Z,36.37
2018-01-02T20:19:59.209Z,33.53
2018-01-02T20:22:26.789Z,32.10
2018-01-02T20:24:54.326Z,33.10
2018-01-02T20:27:21.951Z,32.80
2018-01-02T20:29:49.498Z,28.57
2018-01-02T20:32:17.046Z,30.47
2018-01-02T20:34:44.667Z,28.13
2018-01-02T20:37:12.228Z,29.43
2018-01-02T20:39:39.807Z,29.23
2018-01-02T20:42:07.357Z,29.93
2018-01-02T20:44:34.963Z,29.80
2018-01-02T20:47:02.523Z,26.13
2018-01-02T20:49:30.492Z,25.60
2018-01-02T20:51:58.035Z,29.60
2018-01-02T20:54:25.582Z,29.70
2018-01-02T20:56:53.217Z,29.90
2018-01-02T20:59:20.829Z,32.57
2018-01-02T21:01:48.359Z,32.63
2018-01-02T21:04:15.891Z,31.90
2018-01-02T21:06:43.427Z,33.77
2018-01-02T21:09:10.994Z,33.13
2018-01-02T21:11:38.522Z,33.43
2018-01-02T21:14:06.125Z,34.83
2018-01-02T21:16:33.651Z,34.90
2018-01-02T21:19:01.189Z,35.77
2018-01-02T21:21:28.710Z,34.60
2018-01-02T21:23:56.235Z,32.30
2018-01-02T21:26:23.799Z,31.27
2018-01-02T21:28:51.396Z,31.90
2018-01-02T21:31:18.929Z,31.83
2018-01-02T21:33:46.468Z,30.97
2018-01-02T21:36:14.081Z,28.87
2018-01-02T21:38:41.614Z,30.60
2018-01-02T21:41:09.153Z,26.80
2018-01-02T21:43:36.718Z,26.20
2018-01-02T21:46:04.249Z,28.87
2018-01-02T21:48:31.774Z,28.13
2018-01-02T21:50:59.413Z,24.37
2018-01-02T21:53:26.948Z,27.43
2018-01-02T21:55:54.589Z,23.73
2018-01-02T21:58:22.118Z,26.40
2018-01-02T22:00:49.654Z,24.03
2018-01-02T22:03:17.263Z,23.87
2018-01-02T22:05:44.790Z,23.40
2018-01-02T22:08:12.327Z,22.17
2018-01-02T22:10:39.925Z,23.70
2018-01-02T22:13:07.486Z,22.57
2018-01-02T22:15:35.010Z,23.23
2018-01-02T22:18:02.539Z,22.53
2018-01-02T22:20:30.078Z,24.93
2018-01-02T22:22:57.682Z,21.53
2018-01-02T22:25:25.298Z,23.23
2018-01-02T22:27:52.828Z,26.07
2018-01-02T22:30:20.461Z,23.60
2018-01-02T22:32:48.061Z,20.30
2018-01-02T22:35:15.588Z,26.60
2018-01-02T22:37:43.115Z,25.00
2018-01-02T22:40:10.641Z,23.90
2018-01-02T22:42:38.170Z,25.27
2018-01-02T22:45:05.707Z,21.00
2018-01-02T22:47:33.241Z,22.47
2018-01-02T22:50:00.843Z,21.53
2018-01-02T22:52:28.375Z,23.80
2018-01-02T22:54:55.906Z,21.73
2018-01-02T22:57:23.430Z,22.43
2018-01-02T22:59:50.973Z,19.90
2018-01-02T23:02:18.534Z,20.23
2018-01-02T23:04:46.075Z,21.77
2018-01-02T23:07:13.611Z,21.97
2018-01-02T23:09:41.145Z,22.50
2018-01-02T23:12:08.755Z,20.07
2018-01-02T23:14:36.314Z,18.67
2018-01-02T23:17:03.918Z,17.10
2018-01-02T23:19:31.452Z,17.77
2018-01-02T23:21:58.983Z,18.43
2018-01-02T23:24:26.507Z,17.83
2018-01-02T23:26:54.068Z,15.20
2018-01-02T23:29:21.594Z,16.63
2018-01-02T23:31:49.154Z,18.07
2018-01-02T23:34:16.680Z,15.40
2018-01-02T23:36:44.212Z,18.80
2018-01-02T23:39:11.813Z,14.60
2018-01-02T23:41:39.338Z,15.20
2018-01-02T23:44:06.859Z,16.17
2018-01-02T23:46:34.474Z,15.10
2018-01-02T23:49:02.003Z,16.77
2018-01-02T23:51:29.531Z,14.00
2018-01-02T23:53:57.057Z,15.57
2018-01-02T23:56:24.582Z,13.93
2018-01-02T23:58:52.112Z,15.97
